sensor_id;sensor_type;location;lat;lon;timestamp;pressure;altitude;pressure_sealevel;temperature;humidity
51496;BME280;37572;52.094;4.870;2023-08-31T00:01:02;100810.81;;;16.67;60.38
51496;BME280;37572;52.094;4.870;2023-08-31T00:03:29;100807.31;;;16.66;60.63
51496;BME280;37572;52.094;4.870;2023-08-31T00:05:54;100812.69;;;16.66;60.81
51496;BME280;37572;52.094;4.870;2023-08-31T00:08:20;100808.78;;;16.69;60.46
51496;BME280;37572;52.094;4.870;2023-08-31T00:10:55;100809.41;;;16.71;60.69
51496;BME280;37572;52.094;4.870;2023-08-31T00:13:20;100809.00;;;16.74;61.14
51496;BME280;37572;52.094;4.870;2023-08-31T00:15:46;100808.59;;;16.77;60.73
51496;BME280;37572;52.094;4.870;2023-08-31T00:18:11;100806.94;;;16.76;61.11
51496;BME280;37572;52.094;4.870;2023-08-31T00:20:38;100804.69;;;16.79;60.83
51496;BME280;37572;52.094;4.870;2023-08-31T00:23:03;100805.31;;;16.81;61.26
51496;BME280;37572;52.094;4.870;2023-08-31T00:25:28;100814.72;;;16.86;60.89
51496;BME280;37572;52.094;4.870;2023-08-31T00:27:54;100807.88;;;16.90;61.19
51496;BME280;37572;52.094;4.870;2023-08-31T00:30:20;100817.03;;;16.95;61.15
51496;BME280;37572;52.094;4.870;2023-08-31T00:32:45;100810.84;;;17.01;61.23
51496;BME280;37572;52.094;4.870;2023-08-31T00:35:12;100808.38;;;17.07;61.06
51496;BME280;37572;52.094;4.870;2023-08-31T00:37:37;100806.97;;;17.11;61.13
51496;BME280;37572;52.094;4.870;2023-08-31T00:40:04;100810.09;;;17.14;61.23
51496;BME280;37572;52.094;4.870;2023-08-31T00:42:30;100807.63;;;17.19;61.19
51496;BME280;37572;52.094;4.870;2023-08-31T00:44:55;100811.38;;;17.25;61.38
51496;BME280;37572;52.094;4.870;2023-08-31T00:47:21;100805.19;;;17.31;60.92
51496;BME280;37572;52.094;4.870;2023-08-31T00:49:47;100804.81;;;17.34;61.15
51496;BME280;37572;52.094;4.870;2023-08-31T00:52:12;100806.91;;;17.39;60.99
51496;BME280;37572;52.094;4.870;2023-08-31T00:54:38;100806.06;;;17.45;61.10
51496;BME280;37572;52.094;4.870;2023-08-31T00:57:03;100809.00;;;17.50;61.07
51496;BME280;37572;52.094;4.870;2023-08-31T00:59:29;100810.47;;;17.60;60.87
51496;BME280;37572;52.094;4.870;2023-08-31T01:02:07;100811.75;;;17.64;60.68
51496;BME280;37572;52.094;4.870;2023-08-31T01:05:00;100804.50;;;17.64;59.87
51496;BME280;37572;52.094;4.870;2023-08-31T01:07:48;100804.09;;;17.67;59.59
51496;BME280;37572;52.094;4.870;2023-08-31T01:13:21;100802.03;;;17.69;59.53
51496;BME280;37572;52.094;4.870;2023-08-31T01:15:53;100808.03;;;17.71;58.91
51496;BME280;37572;52.094;4.870;2023-08-31T01:18:21;100809.50;;;17.74;58.75
51496;BME280;37572;52.094;4.870;2023-08-31T01:20:58;100799.75;;;17.73;58.51
51496;BME280;37572;52.094;4.870;2023-08-31T01:23:30;100799.13;;;17.71;57.94
51496;BME280;37572;52.094;4.870;2023-08-31T01:26:00;100800.34;;;17.68;57.98
51496;BME280;37572;52.094;4.870;2023-08-31T01:28:27;100804.09;;;17.67;57.91
51496;BME280;37572;52.094;4.870;2023-08-31T01:30:52;100801.19;;;17.62;57.57
51496;BME280;37572;52.094;4.870;2023-08-31T01:33:17;100805.72;;;17.62;58.08
51496;BME280;37572;52.094;4.870;2023-08-31T01:35:46;100797.00;;;17.60;57.87
51496;BME280;37572;52.094;4.870;2023-08-31T01:38:15;100796.59;;;17.56;57.93
51496;BME280;37572;52.094;4.870;2023-08-31T01:40:49;100795.78;;;17.55;58.13
51496;BME280;37572;52.094;4.870;2023-08-31T01:43:17;100798.47;;;17.55;57.73
51496;BME280;37572;52.094;4.870;2023-08-31T01:45:43;100799.50;;;17.54;57.87
51496;BME280;37572;52.094;4.870;2023-08-31T01:48:10;100804.66;;;17.56;58.33
51496;BME280;37572;52.094;4.870;2023-08-31T01:50:36;100815.25;;;17.57;58.44
51496;BME280;37572;52.094;4.870;2023-08-31T01:53:01;100813.16;;;17.60;58.31
51496;BME280;37572;52.094;4.870;2023-08-31T01:55:27;100814.84;;;17.61;58.00
51496;BME280;37572;52.094;4.870;2023-08-31T01:57:52;100814.44;;;17.64;57.75
51496;BME280;37572;52.094;4.870;2023-08-31T02:00:19;100808.84;;;17.65;57.16
51496;BME280;37572;52.094;4.870;2023-08-31T02:02:44;100802.03;;;17.69;56.99
51496;BME280;37572;52.094;4.870;2023-08-31T02:05:10;100809.91;;;17.71;56.85
51496;BME280;37572;52.094;4.870;2023-08-31T02:07:35;100806.19;;;17.72;56.76
51496;BME280;37572;52.094;4.870;2023-08-31T02:10:01;100814.03;;;17.73;56.30
51496;BME280;37572;52.094;4.870;2023-08-31T02:12:27;100806.19;;;17.72;56.41
51496;BME280;37572;52.094;4.870;2023-08-31T02:14:52;100805.72;;;17.68;56.33
51496;BME280;37572;52.094;4.870;2023-08-31T02:17:17;100805.50;;;17.63;56.29
51496;BME280;37572;52.094;4.870;2023-08-31T02:19:43;100809.66;;;17.59;56.28
51496;BME280;37572;52.094;4.870;2023-08-31T02:22:09;100805.88;;;17.53;56.51
51496;BME280;37572;52.094;4.870;2023-08-31T02:24:34;100810.84;;;17.50;56.44
51496;BME280;37572;52.094;4.870;2023-08-31T02:26:59;100811.69;;;17.44;56.35
51496;BME280;37572;52.094;4.870;2023-08-31T02:29:25;100811.44;;;17.38;56.74
51496;BME280;37572;52.094;4.870;2023-08-31T02:31:50;100806.69;;;17.34;56.99
51496;BME280;37572;52.094;4.870;2023-08-31T02:34:15;100809.97;;;17.29;56.62
51496;BME280;37572;52.094;4.870;2023-08-31T02:36:40;100809.13;;;17.29;56.78
51496;BME280;37572;52.094;4.870;2023-08-31T02:39:06;100810.97;;;17.28;57.10
51496;BME280;37572;52.094;4.870;2023-08-31T02:41:31;100806.00;;;17.25;57.06
51496;BME280;37572;52.094;4.870;2023-08-31T02:43:57;100815.13;;;17.24;57.05
51496;BME280;37572;52.094;4.870;2023-08-31T02:46:23;100807.44;;;17.21;57.15
51496;BME280;37572;52.094;4.870;2023-08-31T02:48:48;100808.47;;;17.20;57.38
51496;BME280;37572;52.094;4.870;2023-08-31T02:51:13;100803.50;;;17.17;57.22
51496;BME280;37572;52.094;4.870;2023-08-31T02:53:39;100808.88;;;17.17;57.29
51496;BME280;37572;52.094;4.870;2023-08-31T02:56:04;100811.56;;;17.17;57.22
51496;BME280;37572;52.094;4.870;2023-08-31T02:58:30;100801.44;;;17.19;57.20
51496;BME280;37572;52.094;4.870;2023-08-31T03:00:55;100797.69;;;17.20;57.53
51496;BME280;37572;52.094;4.870;2023-08-31T03:03:21;100791.28;;;17.21;58.09
51496;BME280;37572;52.094;4.870;2023-08-31T03:05:47;100794.59;;;17.23;57.89
51496;BME280;37572;52.094;4.870;2023-08-31T03:08:12;100793.78;;;17.23;57.76
51496;BME280;37572;52.094;4.870;2023-08-31T03:10:38;100797.28;;;17.23;58.25
51496;BME280;37572;52.094;4.870;2023-08-31T03:13:04;100798.34;;;17.22;58.54
51496;BME280;37572;52.094;4.870;2023-08-31T03:15:32;100802.06;;;17.21;58.81
51496;BME280;37572;52.094;4.870;2023-08-31T03:17:59;100801.44;;;17.19;58.91
51496;BME280;37572;52.094;4.870;2023-08-31T03:20:25;100810.53;;;17.18;59.26
51496;BME280;37572;52.094;4.870;2023-08-31T03:22:50;100808.47;;;17.20;59.05
51496;BME280;37572;52.094;4.870;2023-08-31T03:25:15;100809.50;;;17.19;59.60
51496;BME280;37572;52.094;4.870;2023-08-31T03:27:40;100812.19;;;17.19;60.04
51496;BME280;37572;52.094;4.870;2023-08-31T03:30:07;100806.63;;;17.20;60.00
51496;BME280;37572;52.094;4.870;2023-08-31T03:32:32;100810.94;;;17.22;59.98
51496;BME280;37572;52.094;4.870;2023-08-31T03:34:57;100811.78;;;17.22;60.16
51496;BME280;37572;52.094;4.870;2023-08-31T03:37:23;100810.56;;;17.25;59.92
51496;BME280;37572;52.094;4.870;2023-08-31T03:39:48;100810.97;;;17.28;60.31
51496;BME280;37572;52.094;4.870;2023-08-31T03:42:13;100809.34;;;17.27;60.09
51496;BME280;37572;52.094;4.870;2023-08-31T03:44:39;100827.78;;;17.30;60.37
51496;BME280;37572;52.094;4.870;2023-08-31T03:47:04;100832.94;;;17.32;60.13
51496;BME280;37572;52.094;4.870;2023-08-31T03:49:29;100840.19;;;17.31;60.03
51496;BME280;37572;52.094;4.870;2023-08-31T03:51:57;100834.41;;;17.34;60.41
51496;BME280;37572;52.094;4.870;2023-08-31T03:54:22;100844.19;;;17.42;60.33
51496;BME280;37572;52.094;4.870;2023-08-31T03:56:47;100836.75;;;17.51;60.07
51496;BME280;37572;52.094;4.870;2023-08-31T03:59:12;100838.03;;;17.62;59.76
51496;BME280;37572;52.094;4.870;2023-08-31T04:01:38;100834.34;;;17.69;59.66
51496;BME280;37572;52.094;4.870;2023-08-31T04:04:03;100824.41;;;17.76;59.92
51496;BME280;37572;52.094;4.870;2023-08-31T04:06:29;100833.53;;;17.82;59.88
51496;BME280;37572;52.094;4.870;2023-08-31T04:08:54;100831.91;;;17.88;59.70
51496;BME280;37572;52.094;4.870;2023-08-31T04:11:20;100826.94;;;17.91;59.38
51496;BME280;37572;52.094;4.870;2023-08-31T04:13:45;100825.53;;;17.96;59.21
51496;BME280;37572;52.094;4.870;2023-08-31T04:16:11;100826.75;;;17.93;59.51
51496;BME280;37572;52.094;4.870;2023-08-31T04:18:36;100835.88;;;17.92;59.30
51496;BME280;37572;52.094;4.870;2023-08-31T04:21:01;100843.13;;;17.91;59.23
51496;BME280;37572;52.094;4.870;2023-08-31T04:23:29;100851.81;;;17.93;59.14
51496;BME280;37572;52.094;4.870;2023-08-31T04:25:54;100854.31;;;17.95;59.30
51496;BME280;37572;52.094;4.870;2023-08-31T04:28:21;100861.97;;;17.98;59.10
51496;BME280;37572;52.094;4.870;2023-08-31T04:30:46;100875.88;;;18.02;58.83
51496;BME280;37572;52.094;4.870;2023-08-31T04:33:11;100870.09;;;18.05;59.13
51496;BME280;37572;52.094;4.870;2023-08-31T04:35:36;100873.19;;;18.08;58.63
51496;BME280;37572;52.094;4.870;2023-08-31T04:38:02;100875.47;;;18.11;58.57
51496;BME280;37572;52.094;4.870;2023-08-31T04:40:28;100868.88;;;18.14;58.49
51496;BME280;37572;52.094;4.870;2023-08-31T04:42:54;100873.19;;;18.15;58.42
51496;BME280;37572;52.094;4.870;2023-08-31T04:45:19;100879.03;;;18.12;58.85
51496;BME280;37572;52.094;4.870;2023-08-31T04:47:45;100875.47;;;18.05;58.65
51496;BME280;37572;52.094;4.870;2023-08-31T04:50:10;100881.69;;;17.99;58.59
51496;BME280;37572;52.094;4.870;2023-08-31T04:52:35;100877.94;;;17.93;58.97
51496;BME280;37572;52.094;4.870;2023-08-31T04:55:01;100882.66;;;17.84;59.00
51496;BME280;37572;52.094;4.870;2023-08-31T04:57:28;100877.25;;;17.78;59.06
51496;BME280;37572;52.094;4.870;2023-08-31T04:59:54;100880.09;;;17.69;59.12
51496;BME280;37572;52.094;4.870;2023-08-31T05:02:19;100878.22;;;17.63;59.27
51496;BME280;37572;52.094;4.870;2023-08-31T05:04:44;100879.84;;;17.57;59.35
51496;BME280;37572;52.094;4.870;2023-08-31T05:07:10;100889.16;;;17.55;59.31
51496;BME280;37572;52.094;4.870;2023-08-31T05:09:35;100877.97;;;17.51;59.59
51496;BME280;37572;52.094;4.870;2023-08-31T05:12:01;100881.69;;;17.50;59.72
51496;BME280;37572;52.094;4.870;2023-08-31T05:14:28;100887.28;;;17.49;59.63
51496;BME280;37572;52.094;4.870;2023-08-31T05:16:53;100891.81;;;17.48;59.71
51496;BME280;37572;52.094;4.870;2023-08-31T05:19:19;100898.25;;;17.47;59.66
51496;BME280;37572;52.094;4.870;2023-08-31T05:21:44;100908.16;;;17.47;59.93
51496;BME280;37572;52.094;4.870;2023-08-31T05:24:09;100912.53;;;17.48;60.36
51496;BME280;37572;52.094;4.870;2023-08-31T05:26:35;100914.19;;;17.49;60.15
51496;BME280;37572;52.094;4.870;2023-08-31T05:29:00;100919.59;;;17.49;60.13
51496;BME280;37572;52.094;4.870;2023-08-31T05:31:25;100911.31;;;17.50;59.41
51496;BME280;37572;52.094;4.870;2023-08-31T05:33:51;100915.84;;;17.50;59.84
51496;BME280;37572;52.094;4.870;2023-08-31T05:36:16;100908.16;;;17.47;59.54
51496;BME280;37572;52.094;4.870;2023-08-31T05:38:41;100910.84;;;17.47;60.02
51496;BME280;37572;52.094;4.870;2023-08-31T05:41:07;100913.53;;;17.47;59.59
51496;BME280;37572;52.094;4.870;2023-08-31T05:43:34;100913.53;;;17.47;59.85
51496;BME280;37572;52.094;4.870;2023-08-31T05:46:00;100917.91;;;17.48;59.52
51496;BME280;37572;52.094;4.870;2023-08-31T05:48:25;100913.16;;;17.50;59.73
51496;BME280;37572;52.094;4.870;2023-08-31T05:50:51;100920.63;;;17.54;59.55
51496;BME280;37572;52.094;4.870;2023-08-31T05:53:16;100917.56;;;17.57;59.57
51496;BME280;37572;52.094;4.870;2023-08-31T05:55:42;100932.47;;;17.60;59.66
51496;BME280;37572;52.094;4.870;2023-08-31T05:58:07;100922.16;;;17.64;59.62
51496;BME280;37572;52.094;4.870;2023-08-31T06:00:32;100932.72;;;17.65;59.53
51496;BME280;37572;52.094;4.870;2023-08-31T06:02:57;100929.59;;;17.68;59.39
51496;BME280;37572;52.094;4.870;2023-08-31T06:05:23;100929.41;;;17.70;59.42
51496;BME280;37572;52.094;4.870;2023-08-31T06:07:48;100932.75;;;17.72;59.34
51496;BME280;37572;52.094;4.870;2023-08-31T06:10:13;100931.31;;;17.76;59.47
51496;BME280;37572;52.094;4.870;2023-08-31T06:12:40;100928.84;;;17.81;59.35
51496;BME280;37572;52.094;4.870;2023-08-31T06:15:06;100937.78;;;17.88;59.58
51496;BME280;37572;52.094;4.870;2023-08-31T06:17:31;100937.81;;;17.95;59.72
51496;BME280;37572;52.094;4.870;2023-08-31T06:19:56;100944.31;;;18.07;59.81
51496;BME280;37572;52.094;4.870;2023-08-31T06:22:22;100938.53;;;18.24;59.88
51496;BME280;37572;52.094;4.870;2023-08-31T06:24:49;100934.00;;;18.38;59.67
51496;BME280;37572;52.094;4.870;2023-08-31T06:27:14;100930.28;;;18.45;59.53
51496;BME280;37572;52.094;4.870;2023-08-31T06:29:41;100943.38;;;18.48;59.19
51496;BME280;37572;52.094;4.870;2023-08-31T06:32:07;100951.66;;;18.54;59.30
51496;BME280;37572;52.094;4.870;2023-08-31T06:34:32;100975.94;;;18.60;59.49
51496;BME280;37572;52.094;4.870;2023-08-31T06:36:58;100967.66;;;18.62;59.17
51496;BME280;37572;52.094;4.870;2023-08-31T06:39:24;100974.69;;;18.63;59.01
51496;BME280;37572;52.094;4.870;2023-08-31T06:41:49;100973.06;;;18.62;59.03
51496;BME280;37572;52.094;4.870;2023-08-31T06:44:15;100979.47;;;18.61;59.11
51496;BME280;37572;52.094;4.870;2023-08-31T06:46:40;100966.38;;;18.58;58.86
51496;BME280;37572;52.094;4.870;2023-08-31T06:49:05;100959.75;;;18.54;58.89
51496;BME280;37572;52.094;4.870;2023-08-31T06:51:32;100963.47;;;18.53;59.09
51496;BME280;37572;52.094;4.870;2023-08-31T06:53:58;100964.50;;;18.52;59.17
51496;BME280;37572;52.094;4.870;2023-08-31T06:56:33;100983.38;;;18.52;59.12
51496;BME280;37572;52.094;4.870;2023-08-31T06:58:59;100984.03;;;18.54;59.20
51496;BME280;37572;52.094;4.870;2023-08-31T07:01:24;100985.25;;;18.58;59.49
51496;BME280;37572;52.094;4.870;2023-08-31T07:03:50;100979.47;;;18.61;59.75
51496;BME280;37572;52.094;4.870;2023-08-31T07:06:15;100982.38;;;18.66;59.68
51496;BME280;37572;52.094;4.870;2023-08-31T07:08:40;100981.34;;;18.74;59.82
51496;BME280;37572;52.094;4.870;2023-08-31T07:11:07;100984.91;;;18.88;60.44
51496;BME280;37572;52.094;4.870;2023-08-31T07:13:32;100992.59;;;19.04;59.93
51496;BME280;37572;52.094;4.870;2023-08-31T07:15:57;100979.50;;;19.14;59.83
51496;BME280;37572;52.094;4.870;2023-08-31T07:18:23;100989.69;;;19.19;59.38
51496;BME280;37572;52.094;4.870;2023-08-31T07:20:48;100979.09;;;19.24;59.71
51496;BME280;37572;52.094;4.870;2023-08-31T07:23:13;100984.88;;;19.48;59.41
51496;BME280;37572;52.094;4.870;2023-08-31T07:25:39;100990.66;;;19.58;58.43
51496;BME280;37572;52.094;4.870;2023-08-31T07:28:04;100989.59;;;19.72;58.31
51496;BME280;37572;52.094;4.870;2023-08-31T07:30:31;100997.41;;;20.07;58.01
51496;BME280;37572;52.094;4.870;2023-08-31T07:32:58;100998.69;;;20.37;57.73
51496;BME280;37572;52.094;4.870;2023-08-31T07:35:27;101005.47;;;20.52;56.66
51496;BME280;37572;52.094;4.870;2023-08-31T07:37:53;101001.28;;;20.63;56.83
51496;BME280;37572;52.094;4.870;2023-08-31T07:40:18;100999.09;;;20.79;56.73
51496;BME280;37572;52.094;4.870;2023-08-31T07:42:43;101002.78;;;21.10;57.01
51496;BME280;37572;52.094;4.870;2023-08-31T07:45:09;101006.03;;;21.43;55.80
51496;BME280;37572;52.094;4.870;2023-08-31T07:47:34;101012.63;;;21.54;55.13
51496;BME280;37572;52.094;4.870;2023-08-31T07:50:00;101009.75;;;21.49;54.68
51496;BME280;37572;52.094;4.870;2023-08-31T07:52:25;101002.03;;;21.46;55.03
51496;BME280;37572;52.094;4.870;2023-08-31T07:54:50;101009.47;;;21.57;55.76
51496;BME280;37572;52.094;4.870;2023-08-31T07:57:16;101010.78;;;21.73;54.93
51496;BME280;37572;52.094;4.870;2023-08-31T07:59:41;101013.56;;;21.85;54.63
51496;BME280;37572;52.094;4.870;2023-08-31T08:02:06;101015.34;;;21.91;54.12
51496;BME280;37572;52.094;4.870;2023-08-31T08:04:32;101006.22;;;22.04;53.72
51496;BME280;37572;52.094;4.870;2023-08-31T08:06:57;101007.94;;;22.17;53.26
51496;BME280;37572;52.094;4.870;2023-08-31T08:09:23;101006.72;;;22.31;52.52
51496;BME280;37572;52.094;4.870;2023-08-31T08:11:48;101008.16;;;22.34;52.54
51496;BME280;37572;52.094;4.870;2023-08-31T08:14:13;101013.13;;;22.37;53.02
51496;BME280;37572;52.094;4.870;2023-08-31T08:16:40;101009.97;;;22.40;52.59
51496;BME280;37572;52.094;4.870;2023-08-31T08:19:06;101017.91;;;22.53;53.22
51496;BME280;37572;52.094;4.870;2023-08-31T08:21:31;101020.34;;;22.73;52.44
51496;BME280;37572;52.094;4.870;2023-08-31T08:23:57;101023.91;;;22.98;52.24
51496;BME280;37572;52.094;4.870;2023-08-31T08:26:22;101038.16;;;23.12;51.64
51496;BME280;37572;52.094;4.870;2023-08-31T08:28:47;101032.34;;;23.08;50.37
51496;BME280;37572;52.094;4.870;2023-08-31T08:31:12;101031.34;;;22.90;50.11
51496;BME280;37572;52.094;4.870;2023-08-31T08:33:38;101036.50;;;22.68;49.61
51496;BME280;37572;52.094;4.870;2023-08-31T08:36:03;101037.81;;;22.47;49.60
51496;BME280;37572;52.094;4.870;2023-08-31T08:38:29;101028.59;;;22.37;50.26
51496;BME280;37572;52.094;4.870;2023-08-31T08:40:54;101039.28;;;22.31;50.09
51496;BME280;37572;52.094;4.870;2023-08-31T08:43:28;101036.25;;;22.21;49.69
51496;BME280;37572;52.094;4.870;2023-08-31T08:45:54;101042.59;;;22.15;49.49
51496;BME280;37572;52.094;4.870;2023-08-31T08:48:20;101050.03;;;22.20;49.74
51496;BME280;37572;52.094;4.870;2023-08-31T08:50:46;101048.84;;;22.34;50.33
51496;BME280;37572;52.094;4.870;2023-08-31T08:53:11;101050.72;;;22.52;50.48
51496;BME280;37572;52.094;4.870;2023-08-31T08:55:40;101054.41;;;22.69;50.13
51496;BME280;37572;52.094;4.870;2023-08-31T08:58:05;101051.28;;;22.84;49.23
51496;BME280;37572;52.094;4.870;2023-08-31T09:00:31;101054.75;;;23.03;48.52
51496;BME280;37572;52.094;4.870;2023-08-31T09:02:57;101053.84;;;23.21;48.31
51496;BME280;37572;52.094;4.870;2023-08-31T09:05:23;101051.53;;;23.37;47.57
51496;BME280;37572;52.094;4.870;2023-08-31T09:10:32;101058.34;;;23.63;47.42
51496;BME280;37572;52.094;4.870;2023-08-31T09:12:59;101060.97;;;23.81;47.32
51496;BME280;37572;52.094;4.870;2023-08-31T09:15:24;101056.59;;;23.92;46.19
51496;BME280;37572;52.094;4.870;2023-08-31T09:17:51;101066.31;;;23.88;46.71
51496;BME280;37572;52.094;4.870;2023-08-31T09:20:16;101058.84;;;23.83;46.71
51496;BME280;37572;52.094;4.870;2023-08-31T09:22:44;101068.75;;;23.78;46.57
51496;BME280;37572;52.094;4.870;2023-08-31T09:25:10;101067.69;;;23.67;45.94
51496;BME280;37572;52.094;4.870;2023-08-31T09:27:38;101071.47;;;23.54;45.02
51496;BME280;37572;52.094;4.870;2023-08-31T09:30:06;101058.81;;;23.48;45.87
51496;BME280;37572;52.094;4.870;2023-08-31T09:32:32;101074.66;;;23.51;46.07
51496;BME280;37572;52.094;4.870;2023-08-31T09:34:57;101072.69;;;23.58;45.21
51496;BME280;37572;52.094;4.870;2023-08-31T09:37:27;101077.75;;;23.67;45.66
51496;BME280;37572;52.094;4.870;2023-08-31T09:39:53;101070.88;;;23.76;45.34
51496;BME280;37572;52.094;4.870;2023-08-31T09:42:18;101074.69;;;23.87;45.18
51496;BME280;37572;52.094;4.870;2023-08-31T09:44:44;101073.00;;;23.97;44.86
51496;BME280;37572;52.094;4.870;2023-08-31T09:47:11;101082.34;;;24.13;44.64
51496;BME280;37572;52.094;4.870;2023-08-31T09:49:38;101080.59;;;24.36;44.08
51496;BME280;37572;52.094;4.870;2023-08-31T09:52:05;101077.56;;;24.61;43.88
51496;BME280;37572;52.094;4.870;2023-08-31T09:54:33;101073.66;;;24.86;43.22
51496;BME280;37572;52.094;4.870;2023-08-31T09:57:01;101070.88;;;24.98;42.18
51496;BME280;37572;52.094;4.870;2023-08-31T09:59:27;101075.50;;;24.97;42.05
51496;BME280;37572;52.094;4.870;2023-08-31T10:01:53;101074.34;;;24.93;41.71
51496;BME280;37572;52.094;4.870;2023-08-31T10:04:21;101093.31;;;24.88;41.33
51496;BME280;37572;52.094;4.870;2023-08-31T10:06:46;101086.53;;;24.73;40.44
51496;BME280;37572;52.094;4.870;2023-08-31T10:09:13;101086.09;;;24.53;40.42
51496;BME280;37572;52.094;4.870;2023-08-31T10:11:39;101082.38;;;24.42;40.66
51496;BME280;37572;52.094;4.870;2023-08-31T10:14:05;101087.56;;;24.44;40.39
51496;BME280;37572;52.094;4.870;2023-08-31T10:16:31;101087.09;;;24.47;40.73
51496;BME280;37572;52.094;4.870;2023-08-31T10:18:58;101090.16;;;24.50;40.65
51496;BME280;37572;52.094;4.870;2023-08-31T10:21:23;101084.47;;;24.52;40.68
51496;BME280;37572;52.094;4.870;2023-08-31T10:23:50;101086.72;;;24.55;40.59
51496;BME280;37572;52.094;4.870;2023-08-31T10:26:29;101084.22;;;24.53;40.17
51496;BME280;37572;52.094;4.870;2023-08-31T10:28:55;101093.19;;;24.54;40.00
51496;BME280;37572;52.094;4.870;2023-08-31T10:31:22;101090.28;;;24.55;40.64
51496;BME280;37572;52.094;4.870;2023-08-31T10:33:58;101096.38;;;24.63;40.68
51496;BME280;37572;52.094;4.870;2023-08-31T10:36:36;101085.84;;;24.66;40.04
51496;BME280;37572;52.094;4.870;2023-08-31T10:39:26;101088.31;;;24.68;39.68
51496;BME280;37572;52.094;4.870;2023-08-31T10:42:00;101087.50;;;24.67;40.18
51496;BME280;37572;52.094;4.870;2023-08-31T10:44:27;101087.25;;;24.69;39.99
51496;BME280;37572;52.094;4.870;2023-08-31T10:46:59;101093.03;;;24.72;40.11
51496;BME280;37572;52.094;4.870;2023-08-31T10:49:25;101091.13;;;24.73;39.83
51496;BME280;37572;52.094;4.870;2023-08-31T10:51:56;101087.00;;;24.70;39.63
51496;BME280;37572;52.094;4.870;2023-08-31T10:54:23;101090.78;;;24.69;39.95
51496;BME280;37572;52.094;4.870;2023-08-31T10:59:19;101096.72;;;24.66;39.45
51496;BME280;37572;52.094;4.870;2023-08-31T11:01:59;101096.47;;;24.68;39.37
51496;BME280;37572;52.094;4.870;2023-08-31T11:04:29;101085.34;;;24.69;39.29
51496;BME280;37572;52.094;4.870;2023-08-31T11:07:14;101094.69;;;24.73;39.54
51496;BME280;37572;52.094;4.870;2023-08-31T11:09:40;101085.44;;;24.74;39.46
51496;BME280;37572;52.094;4.870;2023-08-31T11:12:06;101093.13;;;24.78;40.20
51496;BME280;37572;52.094;4.870;2023-08-31T11:14:32;101092.63;;;24.81;39.65
51496;BME280;37572;52.094;4.870;2023-08-31T11:16:59;101090.25;;;24.84;39.50
51496;BME280;37572;52.094;4.870;2023-08-31T11:19:25;101086.81;;;24.89;39.85
51496;BME280;37572;52.094;4.870;2023-08-31T11:21:51;101089.84;;;24.92;39.25
51496;BME280;37572;52.094;4.870;2023-08-31T11:24:17;101092.81;;;24.91;38.72
51496;BME280;37572;52.094;4.870;2023-08-31T11:26:42;101090.09;;;24.91;38.70
51496;BME280;37572;52.094;4.870;2023-08-31T11:29:08;101099.34;;;24.90;38.12
51496;BME280;37572;52.094;4.870;2023-08-31T11:31:38;101089.53;;;24.89;37.52
51496;BME280;37572;52.094;4.870;2023-08-31T11:34:07;101092.81;;;24.91;37.97
51496;BME280;37572;52.094;4.870;2023-08-31T11:36:36;101092.66;;;24.98;38.14
51496;BME280;37572;52.094;4.870;2023-08-31T11:39:02;101091.34;;;25.00;38.08
51496;BME280;37572;52.094;4.870;2023-08-31T11:41:35;101107.22;;;25.03;38.35
51496;BME280;37572;52.094;4.870;2023-08-31T11:44:03;101089.78;;;25.04;37.82
51496;BME280;37572;52.094;4.870;2023-08-31T11:46:30;101099.63;;;25.05;38.28
51496;BME280;37572;52.094;4.870;2023-08-31T11:48:58;101100.44;;;25.06;37.96
51496;BME280;37572;52.094;4.870;2023-08-31T11:51:24;101097.47;;;25.07;37.87
51496;BME280;37572;52.094;4.870;2023-08-31T11:53:50;101098.03;;;25.09;37.76
51496;BME280;37572;52.094;4.870;2023-08-31T11:56:15;101102.50;;;25.16;37.66
51496;BME280;37572;52.094;4.870;2023-08-31T11:58:41;101104.75;;;25.19;38.00
51496;BME280;37572;52.094;4.870;2023-08-31T12:01:08;101088.97;;;25.21;37.36
51496;BME280;37572;52.094;4.870;2023-08-31T12:03:43;101106.50;;;25.25;37.46
51496;BME280;37572;52.094;4.870;2023-08-31T12:06:15;101095.59;;;25.25;37.07
51496;BME280;37572;52.094;4.870;2023-08-31T12:08:41;101095.09;;;25.28;37.31
51496;BME280;37572;52.094;4.870;2023-08-31T12:11:06;101105.03;;;25.34;37.45
51496;BME280;37572;52.094;4.870;2023-08-31T12:13:32;101103.56;;;25.43;37.51
51496;BME280;37572;52.094;4.870;2023-08-31T12:15:57;101096.09;;;25.56;37.17
51496;BME280;37572;52.094;4.870;2023-08-31T12:18:23;101107.22;;;25.71;37.36
51496;BME280;37572;52.094;4.870;2023-08-31T12:20:52;101108.22;;;25.82;37.65
51496;BME280;37572;52.094;4.870;2023-08-31T12:23:18;101106.97;;;25.90;37.47
51496;BME280;37572;52.094;4.870;2023-08-31T12:25:50;101115.81;;;25.97;36.80
51496;BME280;37572;52.094;4.870;2023-08-31T12:28:20;101120.78;;;26.00;36.43
51496;BME280;37572;52.094;4.870;2023-08-31T12:30:51;101102.56;;;26.06;36.27
51496;BME280;37572;52.094;4.870;2023-08-31T12:33:17;101113.34;;;26.17;36.85
51496;BME280;37572;52.094;4.870;2023-08-31T12:35:43;101111.72;;;26.38;37.07
51496;BME280;37572;52.094;4.870;2023-08-31T12:38:09;101108.53;;;26.69;36.57
51496;BME280;37572;52.094;4.870;2023-08-31T12:40:34;101103.69;;;27.03;36.52
51496;BME280;37572;52.094;4.870;2023-08-31T12:42:59;101106.69;;;27.34;35.59
51496;BME280;37572;52.094;4.870;2023-08-31T12:45:25;101104.38;;;27.53;35.44
51496;BME280;37572;52.094;4.870;2023-08-31T12:47:50;101109.13;;;27.68;35.26
51496;BME280;37572;52.094;4.870;2023-08-31T12:50:15;101113.56;;;27.79;34.84
51496;BME280;37572;52.094;4.870;2023-08-31T12:52:41;101106.28;;;27.95;34.93
51496;BME280;37572;52.094;4.870;2023-08-31T12:55:14;101113.28;;;28.23;34.75